Latest Weather Observations for Merimbula

IDN60801

Issued at 7:33 am EST Saturday 28 May 2016 (issued every 30 minutes, with the page automatically refreshed every 10 minutes)

About weather observations | Map of weather stations | Latest weather observations for NSW | Other Formats
Station Details ID: 069147 Name: MERIMBULA AIRPORT AWS Lat: -36.91 Lon: 149.90 Height: 1.5 m
Data from the previous 72 hours. | See also: Recent months at Merimbula
Date/Time
EST
Temp
°C
App
Temp
°C
Dew
Point
Rel
Hum
%
Delta-T
°C
Wind Press
QNH
hPa
Press
MSL
hPa
Rain
since 9 am
mm
Dir
 
Spd
km/h
Gust
km/h
Spd
kts
Gust
kts
28/07:00am 9.9 6.2 4.7 70 2.3 W 13 22 7 12 1006.3 1006.3 2.4
28/06:30am 9.7 6.1 5.1 73 2.1 W 13 20 7 11 1006.0 1006.0 2.4
28/06:00am 9.1 5.7 5.7 79 1.6 WSW 13 17 7 9 1005.8 1005.8 2.4
28/05:30am 9.4 6.8 5.9 79 1.6 WSW 9 15 5 8 1005.6 1005.6 2.2
28/05:00am 9.5 6.1 5.9 78 1.7 W 13 19 7 10 1005.5 1005.5 2.0
28/04:30am 9.2 8.5 6.8 85 1.1 CALM 0 0 0 0 1005.4 1005.4 1.4
28/04:00am 9.2 7.1 6.5 83 1.3 W 7 11 4 6 1005.2 1005.2 1.4
28/03:30am 9.2 7.1 6.6 84 1.2 W 7 11 4 6 1005.1 1005.1 1.4
28/03:00am 9.5 7.0 6.6 82 1.4 W 9 13 5 7 1005.3 1005.3 1.0
28/02:30am 10.4 6.6 6.0 74 2.0 W 15 24 8 13 1005.7 1005.7 0.4
28/02:00am 10.7 6.8 5.5 70 2.4 W 15 20 8 11 1005.8 1005.8 0.2
28/01:30am 11.3 7.0 5.2 66 2.8 W 17 28 9 15 1005.7 1005.7 0.0
28/01:00am 12.5 8.0 4.2 57 3.8 W 17 26 9 14 1005.5 1005.5 0.0
28/12:30am 12.6 8.1 4.1 56 3.8 W 17 28 9 15 1005.5 1005.5 0.0
28/12:00am 12.6 8.4 3.8 55 4.0 WNW 15 22 8 12 1005.3 1005.3 0.0
 
Date/Time
EST
Temp
°C
App
Temp
°C
Dew
Point
Rel
Hum
%
Delta-T
°C
Wind Press
QNH
hPa
Press
MSL
hPa
Rain
since 9 am
mm
Dir
 
Spd
km/h
Gust
km/h
Spd
kts
Gust
kts
27/11:30pm 12.5 8.2 3.5 54 4.0 W 15 22 8 12 1005.3 1005.3 0.0
27/11:00pm 12.5 7.9 3.5 54 4.0 W 17 26 9 14 1005.3 1005.3 0.0
27/10:30pm 12.8 7.8 3.7 54 4.1 WSW 19 30 10 16 1005.2 1005.2 0.0
27/10:00pm 12.7 8.1 3.6 54 4.1 W 17 32 9 17 1005.0 1005.0 0.0
27/09:30pm 13.1 9.2 3.5 52 4.3 W 13 19 7 10 1004.8 1004.8 0.0
27/09:00pm 13.2 8.0 3.8 53 4.3 WSW 20 35 11 19 1004.6 1004.6 0.0
27/08:30pm 13.5 8.3 3.6 51 4.5 WSW 20 37 11 20 1004.6 1004.6 0.0
27/08:00pm 13.3 8.4 3.9 53 4.3 WSW 19 33 10 18 1004.4 1004.4 0.0
27/07:30pm 13.4 7.8 3.5 51 4.4 WSW 22 43 12 23 1004.1 1004.1 0.0
27/07:00pm 13.7 7.7 3.5 50 4.6 WSW 24 46 13 25 1003.8 1003.8 0.0
27/06:30pm 13.6 8.0 3.7 51 4.5 WSW 22 39 12 21 1003.7 1003.7 0.0
27/06:00pm 13.7 8.1 3.5 50 4.6 WSW 22 35 12 19 1003.1 1003.1 0.0
27/05:30pm 13.6 8.6 3.7 51 4.5 WSW 19 33 10 18 1002.6 1002.6 0.0
27/05:00pm 13.7 7.0 3.5 50 4.6 WSW 28 44 15 24 1001.8 1001.8 0.0
27/04:30pm 13.8 7.5 3.6 50 4.6 WSW 26 41 14 22 1001.4 1001.4 0.0
27/04:00pm 13.8 7.1 3.9 51 4.5 WSW 28 46 15 25 1000.9 1000.9 0.0
27/03:35pm 13.9 6.9 3.9 51 4.5 WSW 30 50 16 27 1000.4 1000.4 0.0
27/03:30pm 13.9 7.6 3.9 51 4.5 WSW 26 39 14 21 1000.5 1000.5 0.0
27/03:00pm 13.8 8.3 3.9 51 4.5 WSW 22 35 12 19 999.9 999.9 0.0
27/02:31pm 14.0 6.9 3.5 49 4.7 WSW 30 48 16 26 999.4 999.4 0.0
27/02:30pm 14.0 6.5 3.5 49 4.7 WSW 32 48 17 26 999.4 999.4 0.0
27/02:00pm 14.1 6.4 3.6 49 4.8 WSW 33 52 18 28 999.0 999.0 0.0
27/01:54pm 14.1 7.3 3.3 48 4.9 WSW 28 52 15 28 998.9 998.9 0.0
27/01:30pm 14.2 8.3 3.7 49 4.8 WSW 24 41 13 22 998.6 998.6 0.0
27/01:01pm 14.4 7.2 3.2 47 5.0 WSW 30 48 16 26 998.5 998.5 0.0
27/01:00pm 14.5 7.5 3.9 49 4.9 WSW 30 46 16 25 998.6 998.6 0.0
27/12:36pm 14.2 7.5 3.9 50 4.7 WSW 28 46 15 25 998.5 998.5 0.0
27/12:30pm 14.1 7.8 3.8 50 4.7 WSW 26 44 14 24 998.5 998.5 0.0
27/12:00pm 14.9 8.3 4.0 48 5.0 WSW 28 52 15 28 998.5 998.5 0.0
27/11:30am 14.4 7.3 3.5 48 4.9 WSW 30 56 16 30 998.7 998.7 0.0
27/11:01am 13.9 7.2 3.9 51 4.5 W 28 50 15 27 998.9 998.9 0.0
27/11:00am 14.0 7.7 4.0 51 4.6 W 26 50 14 27 998.9 998.9 0.0
27/10:38am 14.2 7.5 3.9 50 4.7 WSW 28 50 15 27 999.2 999.2 0.0
27/10:30am 14.1 8.2 4.1 51 4.6 W 24 50 13 27 999.2 999.2 0.0
27/10:00am 13.7 6.6 3.8 51 4.5 W 30 61 16 33 999.2 999.2 0.0
27/09:45am 13.5 6.8 3.6 51 4.5 W 28 46 15 25 999.2 999.2 0.0
27/09:30am 13.3 7.8 3.9 53 4.3 W 22 41 12 22 999.3 999.3 0.0
27/09:07am 13.3 6.6 3.4 51 4.4 W 28 48 15 26 999.4 999.4 0.0
27/09:00am 13.5 7.6 3.8 52 4.4 W 24 50 13 27 999.3 999.3 6.4
27/08:52am 13.4 6.7 3.5 51 4.4 W 28 50 15 27 999.4 999.4 6.4
27/08:30am 13.2 6.9 3.8 53 4.2 W 26 50 14 27 999.2 999.2 6.4
27/08:00am 12.4 6.4 3.6 55 4.0 W 24 35 13 19 999.2 999.2 6.4
27/07:30am 12.1 6.2 3.9 57 3.7 W 24 41 13 22 999.2 999.2 6.4
27/07:00am 11.7 6.5 3.7 58 3.6 W 20 32 11 17 999.1 999.1 6.4
27/06:30am 11.4 6.3 3.9 60 3.3 W 20 28 11 15 999.0 999.0 6.4
27/06:00am 11.9 6.0 3.9 58 3.6 W 24 41 13 22 998.8 998.8 6.4
27/05:30am 12.0 6.5 4.0 58 3.6 W 22 39 12 21 998.7 998.7 6.4
27/05:00am 12.4 7.3 4.1 57 3.8 W 20 33 11 18 998.9 998.9 6.4
27/04:30am 12.4 7.6 4.6 59 3.6 WNW 19 30 10 16 998.7 998.7 6.4
27/04:00am 13.0 7.9 4.2 55 4.0 W 20 35 11 19 998.5 998.5 6.4
27/03:30am 12.8 7.9 4.3 56 3.9 W 19 32 10 17 998.5 998.5 6.4
27/03:00am 12.8 8.1 5.2 60 3.5 W 19 33 10 18 998.5 998.5 6.4
27/02:30am 12.9 8.6 5.3 60 3.5 W 17 24 9 13 998.6 998.6 6.4
27/02:00am 12.9 8.6 5.1 59 3.6 W 17 24 9 13 998.6 998.6 6.4
27/01:30am 12.6 7.9 5.1 60 3.5 W 19 30 10 16 998.5 998.5 6.4
27/01:00am 12.2 8.7 5.6 64 3.1 W 13 20 7 11 998.5 998.5 6.4
27/12:30am 11.9 8.5 5.8 66 2.8 WNW 13 19 7 10 998.9 998.9 6.4
27/12:00am 12.0 7.4 5.6 65 3.0 W 19 26 10 14 999.0 999.0 6.4
 
Date/Time
EST
Temp
°C
App
Temp
°C
Dew
Point
Rel
Hum
%
Delta-T
°C
Wind Press
QNH
hPa
Press
MSL
hPa
Rain
since 9 am
mm
Dir
 
Spd
km/h
Gust
km/h
Spd
kts
Gust
kts
26/11:30pm 11.8 7.0 5.7 66 2.8 W 20 26 11 14 999.4 999.4 6.4
26/11:00pm 11.8 6.7 6.1 68 2.7 W 22 33 12 18 999.6 999.6 6.4
26/10:30pm 11.5 6.8 6.2 70 2.5 W 20 33 11 18 999.8 999.8 6.4
26/10:00pm 10.9 7.4 7.2 78 1.8 W 15 28 8 15 1000.0 1000.0 6.4
26/09:30pm 10.4 7.1 8.2 86 1.1 W 15 20 8 11 999.9 999.9 6.4
26/09:00pm 9.8 7.5 8.9 94 0.4 W 11 15 6 8 999.9 999.9 6.4
26/08:39pm 10.2 10.1 9.4 95 0.4 CALM 0 0 0 0 999.9 999.9 6.4
26/08:30pm 10.1 9.9 9.2 94 0.4 CALM 0 0 0 0 999.8 999.8 6.4
26/08:08pm 10.6 10.6 9.7 94 0.5 CALM 0 0 0 0 999.8 999.8 6.4
26/08:00pm 10.8 10.5 10.0 95 0.4 SW 2 7 1 4 999.8 999.8 6.4
26/07:30pm 11.4 9.9 10.6 95 0.4 NW 9 11 5 6 999.6 999.6 6.4
26/07:00pm 11.6 10.7 10.8 95 0.4 NW 6 11 3 6 999.4 999.4 6.4
26/06:30pm 11.7 12.0 10.8 94 0.5 CALM 0 0 0 0 999.5 999.5 6.4
26/06:01pm 11.6 11.8 10.7 94 0.5 CALM 0 0 0 0 999.4 999.4 6.2
26/06:00pm 11.6 11.8 10.7 94 0.5 CALM 0 0 0 0 999.3 999.3 6.2
26/05:38pm 11.8 12.0 10.7 93 0.6 CALM 0 0 0 0 999.1 999.1 6.2
26/05:30pm 11.9 12.2 10.8 93 0.6 CALM 0 0 0 0 999.1 999.1 6.2
26/05:00pm 12.2 12.6 11.1 93 0.6 CALM 0 0 0 0 999.1 999.1 6.2
26/04:30pm 12.5 12.9 11.4 93 0.6 CALM 0 0 0 0 999.0 999.0 6.0
26/04:00pm 12.5 12.9 11.2 92 0.7 CALM 0 0 0 0 998.9 998.9 6.0
26/03:30pm 12.7 13.1 11.4 92 0.7 CALM 0 0 0 0 998.9 998.9 5.6
26/03:07pm 12.8 13.3 11.5 92 0.7 CALM 0 0 0 0 998.9 998.9 5.2
26/03:00pm 12.7 13.1 11.3 91 0.7 CALM 0 0 0 0 999.0 999.0 5.0
26/02:44pm 12.6 13.0 11.2 91 0.7 CALM 0 0 0 0 999.2 999.2 4.6
26/02:30pm 12.6 13.0 11.2 91 0.7 CALM 0 0 0 0 999.0 999.0 4.4
26/02:00pm 12.8 13.1 10.9 88 1.0 CALM 0 0 0 0 999.1 999.1 4.0
26/01:30pm 12.7 13.0 10.8 88 1.0 CALM 0 0 0 0 999.4 999.4 3.4
26/01:00pm 12.5 11.0 10.7 89 0.9 NNW 9 13 5 7 999.9 999.9 3.2
26/12:30pm 12.3 11.2 10.5 89 0.9 NW 7 13 4 7 1000.3 1000.3 3.2
26/12:00pm 12.6 12.8 10.7 88 1.0 CALM 0 0 0 0 1000.4 1000.4 2.8
26/11:30am 12.2 10.9 10.1 87 1.1 N 7 13 4 7 1001.0 1001.0 2.6
26/11:00am 11.9 10.7 10.3 90 0.8 NNW 7 13 4 7 1001.7 1001.7 2.4
26/10:59am 11.8 10.6 10.2 90 0.8 NNW 7 13 4 7 1001.8 1001.8 2.4
26/10:47am 11.5 10.4 10.1 91 0.7 N 6 11 3 6 1002.2 1002.2 2.2
26/10:30am 11.3 10.0 10.0 92 0.7 NNW 7 11 4 6 1002.6 1002.6 1.6
26/10:00am 11.0 9.2 9.4 90 0.8 NNW 9 11 5 6 1003.0 1003.0 1.2
26/09:30am 10.8 9.6 9.4 91 0.7 NW 6 9 3 5 1003.6 1003.6 0.8
26/09:00am 10.7 8.4 9.1 90 0.8 WNW 11 15 6 8 1004.1 1004.1 2.4
26/08:30am 10.9 8.1 8.5 85 1.2 NW 13 17 7 9 1004.2 1004.2 1.2
26/08:00am 11.5 7.9 8.2 80 1.6 NW 17 20 9 11 1004.5 1004.5 0.8
26/07:30am 11.2 8.3 8.1 81 1.5 WNW 13 15 7 8 1004.6 1004.6 0.6
26/07:00am 10.8 8.7 8.4 85 1.2 WNW 9 13 5 7 1004.8 1004.8 0.6
26/06:30am 10.6 10.3 8.5 87 1.0 CALM 0 6 0 3 1005.0 1005.0 0.6
26/06:00am 10.7 9.9 8.1 84 1.3 SSW 2 7 1 4 1005.5 1005.5 0.6
26/05:30am 11.0 10.7 8.6 85 1.2 CALM 0 0 0 0 1005.6 1005.6 0.6
26/05:00am 10.9 8.9 8.8 87 1.0 NW 9 13 5 7 1005.7 1005.7 0.6
26/04:30am 10.5 10.2 8.6 88 0.9 CALM 0 0 0 0 1005.9 1005.9 0.6
26/04:00am 10.6 10.3 8.7 88 0.9 CALM 0 0 0 0 1006.4 1006.4 0.6
26/03:30am 10.2 9.8 8.3 88 0.9 CALM 0 0 0 0 1006.6 1006.6 0.6
26/03:00am 10.3 9.5 8.2 87 1.0 SSW 2 7 1 4 1006.9 1006.9 0.6
26/02:30am 10.7 9.3 8.8 88 0.9 SW 6 9 3 5 1007.6 1007.6 0.6
26/02:00am 11.1 10.6 9.2 88 1.0 WSW 2 7 1 4 1008.1 1008.1 0.6
26/01:30am 11.1 9.4 8.5 84 1.3 WSW 7 11 4 6 1008.4 1008.4 0.6
26/01:00am 11.4 9.6 9.3 87 1.1 WSW 9 13 5 7 1008.8 1008.8 0.6
26/12:30am 11.4 9.9 9.1 86 1.1 WNW 7 9 4 5 1009.2 1009.2 0.6
26/12:00am 10.9 8.9 8.5 85 1.2 W 9 15 5 8 1009.7 1009.7 0.6
 
Date/Time
EST
Temp
°C
App
Temp
°C
Dew
Point
Rel
Hum
%
Delta-T
°C
Wind Press
QNH
hPa
Press
MSL
hPa
Rain
since 9 am
mm
Dir
 
Spd
km/h
Gust
km/h
Spd
kts
Gust
kts
25/11:30pm 11.2 9.4 9.5 89 0.9 WNW 9 13 5 7 1010.1 1010.1 0.6
25/11:00pm 10.9 9.1 9.5 91 0.7 W 9 13 5 7 1010.7 1010.7 0.6
25/10:30pm 11.3 9.4 9.0 86 1.1 WNW 9 15 5 8 1011.3 1011.3 0.6
25/10:00pm 11.3 11.1 9.0 86 1.1 CALM 0 0 0 0 1011.4 1011.4 0.2
25/09:30pm 11.2 10.8 8.1 81 1.5 CALM 0 0 0 0 1011.8 1011.8 0.0
25/09:00pm 11.0 10.5 7.9 81 1.5 CALM 0 0 0 0 1012.1 1012.1 0.0
25/08:30pm 10.9 10.4 7.8 81 1.5 CALM 0 0 0 0 1011.6 1011.6 0.0
25/08:00pm 11.1 10.6 7.8 80 1.6 CALM 0 0 0 0 1011.9 1011.9 0.0
25/07:30pm 11.1 10.6 7.8 80 1.6 CALM 0 0 0 0 1011.9 1011.9 0.0
25/07:00pm 11.2 10.7 7.7 79 1.7 CALM 0 0 0 0 1012.2 1012.2 0.0
25/06:30pm 11.4 10.9 7.9 79 1.7 CALM 0 0 0 0 1012.4 1012.4 0.0
25/06:00pm 11.7 11.3 8.2 79 1.7 CALM 0 0 0 0 1012.4 1012.4 0.0
25/05:30pm 11.7 11.2 8.0 78 1.8 CALM 0 0 0 0 1012.1 1012.1 0.0
25/05:00pm 12.3 11.8 8.0 75 2.1 CALM 0 0 0 0 1012.1 1012.1 0.0
25/04:30pm 13.5 13.1 8.1 70 2.7 CALM 0 0 0 0 1012.2 1012.2 0.0
25/04:00pm 14.2 13.7 7.7 65 3.2 CALM 0 0 0 0 1012.3 1012.3 0.0
25/03:30pm 15.1 12.9 6.4 56 4.2 NNE 7 11 4 6 1012.2 1012.2 0.0
25/03:00pm 15.7 13.1 5.9 52 4.7 NE 9 13 5 7 1012.3 1012.3 0.0
25/02:30pm 15.9 13.2 5.5 50 5.0 NE 9 19 5 10 1012.4 1012.4 0.0
25/02:00pm 16.7 14.3 6.8 52 4.9 NE 9 19 5 10 1012.7 1012.7 0.0
25/01:30pm 15.3 12.6 5.8 53 4.5 NE 9 15 5 8 1012.8 1012.8 0.0
25/01:00pm 15.6 12.7 6.3 54 4.5 NE 11 17 6 9 1013.3 1013.3 0.0
25/12:30pm 17.2 14.3 6.4 49 5.3 NE 11 20 6 11 1013.4 1013.4 0.0
25/12:00pm 15.8 12.7 5.4 50 5.0 E 11 17 6 9 1014.1 1014.1 0.0
25/11:30am 16.1 13.4 7.3 56 4.4 E 11 15 6 8 1014.8 1014.8 0.0
25/11:00am 15.9 13.7 6.3 53 4.7 ENE 7 13 4 7 1015.3 1015.3 0.0
25/10:30am 15.0 13.6 3.5 46 5.2 CALM 0 0 0 0 1015.7 1015.7 0.0
25/10:00am 13.7 12.6 5.1 56 4.0 CALM 0 0 0 0 1015.9 1015.9 0.0
25/09:30am 12.5 9.9 6.3 66 2.9 NNW 9 11 5 6 1016.2 1016.2 0.0
25/09:00am 11.0 10.1 6.2 72 2.2 CALM 0 0 0 0 1016.6 1016.6 0.0
25/08:30am 9.0 7.1 6.6 85 1.1 WNW 6 9 3 5 1016.7 1016.7 0.0
25/08:00am 7.5 4.8 5.8 89 0.8 NNW 9 13 5 7 1016.8 1016.8 0.0

Other Formats:

Comma delimited format used in spreadsheet applications
http://www.bom.gov.au/fwo/IDN60801/IDN60801.95929.axf

JavaScript Object Notation format (JSON) in row-major order
http://www.bom.gov.au/fwo/IDN60801/IDN60801.95929.json